sensor_id;sensor_type;location;lat;lon;timestamp;P1;durP1;ratioP1;P2;durP2;ratioP2
11121;SDS011;5615;49.304;10.576;2022-08-18T00:01:37;8.00;;;5.47;;
11121;SDS011;5615;49.304;10.576;2022-08-18T00:04:06;8.98;;;5.10;;
11121;SDS011;5615;49.304;10.576;2022-08-18T00:06:33;10.32;;;5.97;;
11121;SDS011;5615;49.304;10.576;2022-08-18T00:09:00;7.00;;;5.47;;
11121;SDS011;5615;49.304;10.576;2022-08-18T00:11:30;9.40;;;5.78;;
11121;SDS011;5615;49.304;10.576;2022-08-18T00:13:59;7.57;;;5.13;;
11121;SDS011;5615;49.304;10.576;2022-08-18T00:16:26;9.88;;;6.13;;
11121;SDS011;5615;49.304;10.576;2022-08-18T00:18:53;12.45;;;6.40;;
11121;SDS011;5615;49.304;10.576;2022-08-18T00:21:21;8.70;;;6.80;;
11121;SDS011;5615;49.304;10.576;2022-08-18T00:23:47;10.00;;;6.65;;
11121;SDS011;5615;49.304;10.576;2022-08-18T00:26:14;11.05;;;7.10;;
11121;SDS011;5615;49.304;10.576;2022-08-18T00:28:41;10.85;;;7.43;;
11121;SDS011;5615;49.304;10.576;2022-08-18T00:31:07;8.38;;;7.07;;
11121;SDS011;5615;49.304;10.576;2022-08-18T00:33:34;11.02;;;7.47;;
11121;SDS011;5615;49.304;10.576;2022-08-18T00:36:01;10.55;;;7.78;;
11121;SDS011;5615;49.304;10.576;2022-08-18T00:38:29;9.63;;;8.60;;
11121;SDS011;5615;49.304;10.576;2022-08-18T00:40:56;10.35;;;8.30;;
11121;SDS011;5615;49.304;10.576;2022-08-18T00:43:24;11.32;;;7.50;;
11121;SDS011;5615;49.304;10.576;2022-08-18T00:45:56;10.63;;;9.15;;
11121;SDS011;5615;49.304;10.576;2022-08-18T00:48:24;10.60;;;9.40;;
11121;SDS011;5615;49.304;10.576;2022-08-18T00:50:53;11.30;;;10.23;;
11121;SDS011;5615;49.304;10.576;2022-08-18T00:53:24;12.07;;;10.82;;
11121;SDS011;5615;49.304;10.576;2022-08-18T00:55:55;11.73;;;10.57;;
11121;SDS011;5615;49.304;10.576;2022-08-18T00:58:28;12.23;;;11.07;;
11121;SDS011;5615;49.304;10.576;2022-08-18T01:00:58;13.23;;;11.95;;
11121;SDS011;5615;49.304;10.576;2022-08-18T01:03:27;14.30;;;12.80;;
11121;SDS011;5615;49.304;10.576;2022-08-18T01:05:59;16.70;;;12.98;;
11121;SDS011;5615;49.304;10.576;2022-08-18T01:08:28;16.73;;;13.13;;
11121;SDS011;5615;49.304;10.576;2022-08-18T01:10:57;15.20;;;13.68;;
11121;SDS011;5615;49.304;10.576;2022-08-18T01:13:27;15.70;;;14.23;;
11121;SDS011;5615;49.304;10.576;2022-08-18T01:15:57;14.35;;;12.90;;
11121;SDS011;5615;49.304;10.576;2022-08-18T01:18:44;15.63;;;14.05;;
11121;SDS011;5615;49.304;10.576;2022-08-18T01:21:28;16.52;;;14.88;;
11121;SDS011;5615;49.304;10.576;2022-08-18T01:24:15;15.98;;;14.27;;
11121;SDS011;5615;49.304;10.576;2022-08-18T01:26:44;17.65;;;15.23;;
11121;SDS011;5615;49.304;10.576;2022-08-18T01:29:14;16.85;;;14.93;;
11121;SDS011;5615;49.304;10.576;2022-08-18T01:31:43;17.65;;;16.13;;
11121;SDS011;5615;49.304;10.576;2022-08-18T01:34:19;18.27;;;16.52;;
11121;SDS011;5615;49.304;10.576;2022-08-18T01:36:48;16.92;;;15.35;;
11121;SDS011;5615;49.304;10.576;2022-08-18T01:39:18;16.08;;;14.60;;
11121;SDS011;5615;49.304;10.576;2022-08-18T01:41:44;18.58;;;16.58;;
11121;SDS011;5615;49.304;10.576;2022-08-18T01:44:11;17.38;;;15.60;;
11121;SDS011;5615;49.304;10.576;2022-08-18T01:46:38;16.73;;;15.10;;
11121;SDS011;5615;49.304;10.576;2022-08-18T01:49:07;17.75;;;14.80;;
11121;SDS011;5615;49.304;10.576;2022-08-18T01:51:35;15.52;;;13.82;;
11121;SDS011;5615;49.304;10.576;2022-08-18T01:54:05;17.00;;;15.40;;
11121;SDS011;5615;49.304;10.576;2022-08-18T01:56:33;17.20;;;15.40;;
11121;SDS011;5615;49.304;10.576;2022-08-18T01:59:00;17.60;;;16.00;;
11121;SDS011;5615;49.304;10.576;2022-08-18T02:01:27;17.15;;;15.48;;
11121;SDS011;5615;49.304;10.576;2022-08-18T02:03:54;17.23;;;15.63;;
11121;SDS011;5615;49.304;10.576;2022-08-18T02:06:24;18.23;;;16.40;;
11121;SDS011;5615;49.304;10.576;2022-08-18T02:08:51;16.25;;;14.75;;
11121;SDS011;5615;49.304;10.576;2022-08-18T02:11:18;16.55;;;15.15;;
11121;SDS011;5615;49.304;10.576;2022-08-18T02:13:46;17.73;;;16.02;;
11121;SDS011;5615;49.304;10.576;2022-08-18T02:16:13;17.67;;;15.90;;
11121;SDS011;5615;49.304;10.576;2022-08-18T02:18:40;16.23;;;14.75;;
11121;SDS011;5615;49.304;10.576;2022-08-18T02:21:08;15.68;;;14.13;;
11121;SDS011;5615;49.304;10.576;2022-08-18T02:23:37;17.23;;;15.70;;
11121;SDS011;5615;49.304;10.576;2022-08-18T02:26:06;17.63;;;15.93;;
11121;SDS011;5615;49.304;10.576;2022-08-18T02:28:34;16.38;;;14.55;;
11121;SDS011;5615;49.304;10.576;2022-08-18T02:31:06;16.58;;;14.95;;
11121;SDS011;5615;49.304;10.576;2022-08-18T02:33:34;16.63;;;15.05;;
11121;SDS011;5615;49.304;10.576;2022-08-18T02:36:02;16.88;;;15.18;;
11121;SDS011;5615;49.304;10.576;2022-08-18T02:38:31;18.42;;;16.70;;
11121;SDS011;5615;49.304;10.576;2022-08-18T02:40:58;17.42;;;15.63;;
11121;SDS011;5615;49.304;10.576;2022-08-18T02:43:27;17.85;;;16.10;;
11121;SDS011;5615;49.304;10.576;2022-08-18T02:45:54;19.85;;;17.75;;
11121;SDS011;5615;49.304;10.576;2022-08-18T02:48:23;19.20;;;17.20;;
11121;SDS011;5615;49.304;10.576;2022-08-18T02:50:58;18.30;;;16.40;;
11121;SDS011;5615;49.304;10.576;2022-08-18T02:53:25;20.02;;;17.77;;
11121;SDS011;5615;49.304;10.576;2022-08-18T02:55:52;19.42;;;17.60;;
11121;SDS011;5615;49.304;10.576;2022-08-18T02:58:19;19.38;;;17.60;;
11121;SDS011;5615;49.304;10.576;2022-08-18T03:00:46;19.08;;;17.27;;
11121;SDS011;5615;49.304;10.576;2022-08-18T03:03:13;19.05;;;17.25;;
11121;SDS011;5615;49.304;10.576;2022-08-18T03:05:41;18.73;;;16.75;;
11121;SDS011;5615;49.304;10.576;2022-08-18T03:08:07;18.48;;;16.65;;
11121;SDS011;5615;49.304;10.576;2022-08-18T03:10:34;18.67;;;16.80;;
11121;SDS011;5615;49.304;10.576;2022-08-18T03:13:01;18.65;;;16.88;;
11121;SDS011;5615;49.304;10.576;2022-08-18T03:15:27;19.33;;;17.38;;
11121;SDS011;5615;49.304;10.576;2022-08-18T03:17:54;19.02;;;17.20;;
11121;SDS011;5615;49.304;10.576;2022-08-18T03:20:22;23.63;;;18.20;;
11121;SDS011;5615;49.304;10.576;2022-08-18T03:22:50;17.75;;;16.05;;
11121;SDS011;5615;49.304;10.576;2022-08-18T03:25:16;20.27;;;17.95;;
11121;SDS011;5615;49.304;10.576;2022-08-18T03:27:43;19.45;;;17.63;;
11121;SDS011;5615;49.304;10.576;2022-08-18T03:30:10;18.70;;;17.05;;
11121;SDS011;5615;49.304;10.576;2022-08-18T03:32:36;19.08;;;16.92;;
11121;SDS011;5615;49.304;10.576;2022-08-18T03:35:03;19.55;;;16.55;;
11121;SDS011;5615;49.304;10.576;2022-08-18T03:37:31;18.10;;;15.85;;
11121;SDS011;5615;49.304;10.576;2022-08-18T03:39:59;17.80;;;16.02;;
11121;SDS011;5615;49.304;10.576;2022-08-18T03:42:25;17.42;;;15.63;;
11121;SDS011;5615;49.304;10.576;2022-08-18T03:44:52;18.58;;;16.70;;
11121;SDS011;5615;49.304;10.576;2022-08-18T03:47:19;17.10;;;15.50;;
11121;SDS011;5615;49.304;10.576;2022-08-18T03:49:45;18.83;;;15.90;;
11121;SDS011;5615;49.304;10.576;2022-08-18T03:52:12;17.77;;;15.55;;
11121;SDS011;5615;49.304;10.576;2022-08-18T03:54:39;16.02;;;14.52;;
11121;SDS011;5615;49.304;10.576;2022-08-18T03:57:08;16.92;;;15.20;;
11121;SDS011;5615;49.304;10.576;2022-08-18T03:59:36;16.13;;;14.63;;
11121;SDS011;5615;49.304;10.576;2022-08-18T04:02:06;16.05;;;14.45;;
11121;SDS011;5615;49.304;10.576;2022-08-18T04:04:33;14.98;;;13.57;;
11121;SDS011;5615;49.304;10.576;2022-08-18T04:07:00;15.43;;;13.82;;
11121;SDS011;5615;49.304;10.576;2022-08-18T04:09:29;15.10;;;13.60;;
11121;SDS011;5615;49.304;10.576;2022-08-18T04:12:00;14.90;;;13.40;;
11121;SDS011;5615;49.304;10.576;2022-08-18T04:14:35;15.60;;;14.23;;
11121;SDS011;5615;49.304;10.576;2022-08-18T04:17:03;14.77;;;13.48;;
11121;SDS011;5615;49.304;10.576;2022-08-18T04:19:30;15.25;;;13.73;;
11121;SDS011;5615;49.304;10.576;2022-08-18T04:21:59;14.98;;;13.50;;
11121;SDS011;5615;49.304;10.576;2022-08-18T04:24:28;15.43;;;13.80;;
11121;SDS011;5615;49.304;10.576;2022-08-18T04:26:56;15.20;;;13.77;;
11121;SDS011;5615;49.304;10.576;2022-08-18T04:29:24;15.23;;;13.30;;
11121;SDS011;5615;49.304;10.576;2022-08-18T04:31:52;14.63;;;13.32;;
11121;SDS011;5615;49.304;10.576;2022-08-18T04:34:19;14.65;;;13.25;;
11121;SDS011;5615;49.304;10.576;2022-08-18T04:36:47;14.18;;;12.93;;
11121;SDS011;5615;49.304;10.576;2022-08-18T04:39:17;15.05;;;13.65;;
11121;SDS011;5615;49.304;10.576;2022-08-18T04:41:44;14.25;;;12.98;;
11121;SDS011;5615;49.304;10.576;2022-08-18T04:44:12;13.98;;;12.65;;
11121;SDS011;5615;49.304;10.576;2022-08-18T04:46:44;13.85;;;12.52;;
11121;SDS011;5615;49.304;10.576;2022-08-18T04:49:14;15.23;;;13.07;;
11121;SDS011;5615;49.304;10.576;2022-08-18T04:51:43;14.15;;;12.63;;
11121;SDS011;5615;49.304;10.576;2022-08-18T04:54:31;13.90;;;12.60;;
11121;SDS011;5615;49.304;10.576;2022-08-18T04:57:01;16.52;;;12.88;;
11121;SDS011;5615;49.304;10.576;2022-08-18T04:59:33;13.65;;;12.30;;
11121;SDS011;5615;49.304;10.576;2022-08-18T05:02:00;14.18;;;12.98;;
11121;SDS011;5615;49.304;10.576;2022-08-18T05:04:31;14.70;;;11.95;;
11121;SDS011;5615;49.304;10.576;2022-08-18T05:06:58;13.98;;;12.68;;
11121;SDS011;5615;49.304;10.576;2022-08-18T05:09:25;13.50;;;12.15;;
11121;SDS011;5615;49.304;10.576;2022-08-18T05:11:52;13.45;;;12.13;;
11121;SDS011;5615;49.304;10.576;2022-08-18T05:14:19;13.55;;;12.15;;
11121;SDS011;5615;49.304;10.576;2022-08-18T05:16:46;13.82;;;12.45;;
11121;SDS011;5615;49.304;10.576;2022-08-18T05:19:13;13.85;;;12.65;;
11121;SDS011;5615;49.304;10.576;2022-08-18T05:21:42;14.13;;;12.93;;
11121;SDS011;5615;49.304;10.576;2022-08-18T05:24:08;13.57;;;11.27;;
11121;SDS011;5615;49.304;10.576;2022-08-18T05:26:35;13.25;;;11.30;;
11121;SDS011;5615;49.304;10.576;2022-08-18T05:29:04;12.65;;;11.43;;
11121;SDS011;5615;49.304;10.576;2022-08-18T05:31:31;11.55;;;10.45;;
11121;SDS011;5615;49.304;10.576;2022-08-18T05:33:58;12.20;;;11.07;;
11121;SDS011;5615;49.304;10.576;2022-08-18T05:36:39;12.10;;;11.00;;
11121;SDS011;5615;49.304;10.576;2022-08-18T05:39:20;11.82;;;10.73;;
11121;SDS011;5615;49.304;10.576;2022-08-18T05:41:50;11.60;;;10.60;;
11121;SDS011;5615;49.304;10.576;2022-08-18T05:44:22;11.38;;;10.27;;
11121;SDS011;5615;49.304;10.576;2022-08-18T05:46:52;12.40;;;10.38;;
11121;SDS011;5615;49.304;10.576;2022-08-18T05:49:20;11.43;;;10.32;;
11121;SDS011;5615;49.304;10.576;2022-08-18T05:51:51;11.93;;;10.75;;
11121;SDS011;5615;49.304;10.576;2022-08-18T05:54:21;11.50;;;10.27;;
11121;SDS011;5615;49.304;10.576;2022-08-18T05:57:09;11.35;;;10.25;;
11121;SDS011;5615;49.304;10.576;2022-08-18T05:59:40;11.40;;;10.40;;
11121;SDS011;5615;49.304;10.576;2022-08-18T06:02:09;11.18;;;10.05;;
11121;SDS011;5615;49.304;10.576;2022-08-18T06:04:42;11.02;;;9.93;;
11121;SDS011;5615;49.304;10.576;2022-08-18T06:07:15;10.82;;;9.73;;
11121;SDS011;5615;49.304;10.576;2022-08-18T06:09:46;11.85;;;10.15;;
11121;SDS011;5615;49.304;10.576;2022-08-18T06:12:18;11.13;;;9.65;;
11121;SDS011;5615;49.304;10.576;2022-08-18T06:14:50;10.95;;;9.93;;
11121;SDS011;5615;49.304;10.576;2022-08-18T06:17:42;10.23;;;8.95;;
11121;SDS011;5615;49.304;10.576;2022-08-18T06:20:27;10.48;;;9.35;;
11121;SDS011;5615;49.304;10.576;2022-08-18T06:23:01;9.52;;;8.73;;
11121;SDS011;5615;49.304;10.576;2022-08-18T06:25:36;9.38;;;8.48;;
11121;SDS011;5615;49.304;10.576;2022-08-18T06:28:22;9.60;;;8.48;;
11121;SDS011;5615;49.304;10.576;2022-08-18T06:30:52;11.07;;;9.30;;
11121;SDS011;5615;49.304;10.576;2022-08-18T06:33:27;9.52;;;7.97;;
11121;SDS011;5615;49.304;10.576;2022-08-18T06:36:03;8.55;;;7.85;;
11121;SDS011;5615;49.304;10.576;2022-08-18T06:38:41;10.32;;;8.13;;
11121;SDS011;5615;49.304;10.576;2022-08-18T06:41:18;8.68;;;7.88;;
11121;SDS011;5615;49.304;10.576;2022-08-18T06:43:52;8.50;;;7.70;;
11121;SDS011;5615;49.304;10.576;2022-08-18T06:46:25;8.05;;;7.35;;
11121;SDS011;5615;49.304;10.576;2022-08-18T06:48:58;8.32;;;7.50;;
11121;SDS011;5615;49.304;10.576;2022-08-18T06:51:29;8.40;;;7.60;;
11121;SDS011;5615;49.304;10.576;2022-08-18T06:53:59;8.43;;;7.63;;
11121;SDS011;5615;49.304;10.576;2022-08-18T06:56:31;8.77;;;7.97;;
11121;SDS011;5615;49.304;10.576;2022-08-18T06:59:18;9.77;;;8.00;;
11121;SDS011;5615;49.304;10.576;2022-08-18T07:01:47;8.55;;;7.82;;
11121;SDS011;5615;49.304;10.576;2022-08-18T07:04:34;8.38;;;7.68;;
11121;SDS011;5615;49.304;10.576;2022-08-18T07:07:11;9.55;;;7.68;;
11121;SDS011;5615;49.304;10.576;2022-08-18T07:09:43;8.85;;;8.02;;
11121;SDS011;5615;49.304;10.576;2022-08-18T07:12:11;9.10;;;8.25;;
11121;SDS011;5615;49.304;10.576;2022-08-18T07:14:47;8.50;;;7.68;;
11121;SDS011;5615;49.304;10.576;2022-08-18T07:17:19;9.68;;;8.68;;
11121;SDS011;5615;49.304;10.576;2022-08-18T07:19:59;10.55;;;8.70;;
11121;SDS011;5615;49.304;10.576;2022-08-18T07:22:28;9.45;;;8.38;;
11121;SDS011;5615;49.304;10.576;2022-08-18T07:24:57;8.82;;;8.02;;
11121;SDS011;5615;49.304;10.576;2022-08-18T07:27:44;9.43;;;8.55;;
11121;SDS011;5615;49.304;10.576;2022-08-18T07:30:24;9.27;;;8.52;;
11121;SDS011;5615;49.304;10.576;2022-08-18T07:32:55;9.27;;;8.48;;
11121;SDS011;5615;49.304;10.576;2022-08-18T07:35:27;9.15;;;8.18;;
11121;SDS011;5615;49.304;10.576;2022-08-18T07:37:59;8.27;;;7.60;;
11121;SDS011;5615;49.304;10.576;2022-08-18T07:40:32;9.43;;;8.40;;
11121;SDS011;5615;49.304;10.576;2022-08-18T07:43:04;13.43;;;8.23;;
11121;SDS011;5615;49.304;10.576;2022-08-18T07:45:39;8.77;;;7.97;;
11121;SDS011;5615;49.304;10.576;2022-08-18T07:48:09;9.05;;;8.18;;
11121;SDS011;5615;49.304;10.576;2022-08-18T07:50:38;10.02;;;8.93;;
11121;SDS011;5615;49.304;10.576;2022-08-18T07:53:15;11.95;;;9.10;;
11121;SDS011;5615;49.304;10.576;2022-08-18T07:55:57;9.68;;;8.70;;
11121;SDS011;5615;49.304;10.576;2022-08-18T07:58:31;8.38;;;7.57;;
11121;SDS011;5615;49.304;10.576;2022-08-18T08:01:03;9.35;;;8.55;;
11121;SDS011;5615;49.304;10.576;2022-08-18T08:03:37;9.38;;;8.57;;
11121;SDS011;5615;49.304;10.576;2022-08-18T08:06:13;10.80;;;9.63;;
11121;SDS011;5615;49.304;10.576;2022-08-18T08:08:46;9.25;;;8.35;;
11121;SDS011;5615;49.304;10.576;2022-08-18T08:11:23;9.88;;;8.98;;
11121;SDS011;5615;49.304;10.576;2022-08-18T08:14:05;9.00;;;8.20;;
11121;SDS011;5615;49.304;10.576;2022-08-18T08:16:42;8.98;;;8.10;;
11121;SDS011;5615;49.304;10.576;2022-08-18T08:19:19;13.07;;;8.70;;
11121;SDS011;5615;49.304;10.576;2022-08-18T08:22:02;8.77;;;8.07;;
11121;SDS011;5615;49.304;10.576;2022-08-18T08:24:32;12.27;;;8.95;;
11121;SDS011;5615;49.304;10.576;2022-08-18T08:27:09;9.35;;;8.32;;
11121;SDS011;5615;49.304;10.576;2022-08-18T08:29:43;8.30;;;7.60;;
11121;SDS011;5615;49.304;10.576;2022-08-18T08:32:21;9.77;;;8.70;;
11121;SDS011;5615;49.304;10.576;2022-08-18T08:34:56;8.60;;;7.88;;
11121;SDS011;5615;49.304;10.576;2022-08-18T08:37:28;9.10;;;8.40;;
11121;SDS011;5615;49.304;10.576;2022-08-18T08:40:02;8.20;;;7.50;;
11121;SDS011;5615;49.304;10.576;2022-08-18T08:42:36;10.13;;;7.85;;
11121;SDS011;5615;49.304;10.576;2022-08-18T08:45:07;8.40;;;7.57;;
11121;SDS011;5615;49.304;10.576;2022-08-18T08:47:39;8.50;;;7.70;;
11121;SDS011;5615;49.304;10.576;2022-08-18T08:50:14;8.40;;;7.68;;
11121;SDS011;5615;49.304;10.576;2022-08-18T08:52:45;8.10;;;7.28;;
11121;SDS011;5615;49.304;10.576;2022-08-18T08:55:16;7.82;;;6.80;;
11121;SDS011;5615;49.304;10.576;2022-08-18T08:57:51;7.95;;;7.25;;
11121;SDS011;5615;49.304;10.576;2022-08-18T09:00:20;8.27;;;7.57;;
11121;SDS011;5615;49.304;10.576;2022-08-18T09:02:53;7.85;;;7.15;;
11121;SDS011;5615;49.304;10.576;2022-08-18T09:05:30;8.13;;;7.43;;
11121;SDS011;5615;49.304;10.576;2022-08-18T09:16:51;7.47;;;6.85;;
11121;SDS011;5615;49.304;10.576;2022-08-18T09:19:37;8.65;;;6.65;;
11121;SDS011;5615;49.304;10.576;2022-08-18T09:22:25;7.07;;;6.50;;
11121;SDS011;5615;49.304;10.576;2022-08-18T09:25:00;7.43;;;6.72;;
11121;SDS011;5615;49.304;10.576;2022-08-18T09:27:32;7.18;;;6.57;;
11121;SDS011;5615;49.304;10.576;2022-08-18T09:30:05;7.80;;;6.65;;
11121;SDS011;5615;49.304;10.576;2022-08-18T09:33:00;8.50;;;6.75;;
11121;SDS011;5615;49.304;10.576;2022-08-18T09:35:51;7.90;;;6.25;;
11121;SDS011;5615;49.304;10.576;2022-08-18T09:38:24;7.63;;;6.93;;
11121;SDS011;5615;49.304;10.576;2022-08-18T09:41:15;7.95;;;7.15;;
11121;SDS011;5615;49.304;10.576;2022-08-18T09:43:59;6.85;;;6.25;;
11121;SDS011;5615;49.304;10.576;2022-08-18T09:46:54;7.30;;;6.68;;
11121;SDS011;5615;49.304;10.576;2022-08-18T09:49:42;7.22;;;6.53;;
11121;SDS011;5615;49.304;10.576;2022-08-18T09:58:19;7.53;;;6.82;;
11121;SDS011;5615;49.304;10.576;2022-08-18T10:01:30;8.70;;;6.95;;
11121;SDS011;5615;49.304;10.576;2022-08-18T10:04:16;7.65;;;6.97;;
11121;SDS011;5615;49.304;10.576;2022-08-18T10:06:50;7.38;;;6.57;;
11121;SDS011;5615;49.304;10.576;2022-08-18T10:09:28;7.30;;;6.70;;
11121;SDS011;5615;49.304;10.576;2022-08-18T10:12:13;7.00;;;6.32;;
11121;SDS011;5615;49.304;10.576;2022-08-18T10:14:53;7.35;;;6.60;;
11121;SDS011;5615;49.304;10.576;2022-08-18T10:17:47;7.53;;;6.70;;
11121;SDS011;5615;49.304;10.576;2022-08-18T10:20:29;7.72;;;6.70;;
11121;SDS011;5615;49.304;10.576;2022-08-18T10:23:04;6.75;;;6.15;;
11121;SDS011;5615;49.304;10.576;2022-08-18T10:25:34;7.25;;;6.32;;
11121;SDS011;5615;49.304;10.576;2022-08-18T10:28:05;7.57;;;6.88;;
11121;SDS011;5615;49.304;10.576;2022-08-18T10:30:45;8.75;;;7.55;;
11121;SDS011;5615;49.304;10.576;2022-08-18T10:36:43;7.80;;;6.97;;
11121;SDS011;5615;49.304;10.576;2022-08-18T10:39:13;7.75;;;7.05;;
11121;SDS011;5615;49.304;10.576;2022-08-18T10:41:54;7.45;;;6.82;;
11121;SDS011;5615;49.304;10.576;2022-08-18T10:44:25;9.15;;;6.80;;
11121;SDS011;5615;49.304;10.576;2022-08-18T10:46:55;9.98;;;7.18;;
11121;SDS011;5615;49.304;10.576;2022-08-18T10:49:26;8.85;;;6.00;;
11121;SDS011;5615;49.304;10.576;2022-08-18T10:52:09;9.15;;;6.38;;
11121;SDS011;5615;49.304;10.576;2022-08-18T10:54:57;7.53;;;6.47;;
11121;SDS011;5615;49.304;10.576;2022-08-18T10:57:36;7.10;;;6.40;;
11121;SDS011;5615;49.304;10.576;2022-08-18T11:00:19;6.75;;;6.25;;
11121;SDS011;5615;49.304;10.576;2022-08-18T11:02:51;6.72;;;6.13;;
11121;SDS011;5615;49.304;10.576;2022-08-18T11:05:31;6.15;;;5.55;;
11121;SDS011;5615;49.304;10.576;2022-08-18T11:07:59;7.63;;;5.90;;
11121;SDS011;5615;49.304;10.576;2022-08-18T11:10:36;7.53;;;5.63;;
11121;SDS011;5615;49.304;10.576;2022-08-18T11:13:09;9.43;;;6.57;;
11121;SDS011;5615;49.304;10.576;2022-08-18T11:15:45;6.43;;;5.80;;
11121;SDS011;5615;49.304;10.576;2022-08-18T11:18:23;6.35;;;5.85;;
11121;SDS011;5615;49.304;10.576;2022-08-18T11:24:07;6.97;;;4.93;;
11121;SDS011;5615;49.304;10.576;2022-08-18T11:26:38;5.68;;;5.18;;
11121;SDS011;5615;49.304;10.576;2022-08-18T11:29:17;5.68;;;5.10;;
11121;SDS011;5615;49.304;10.576;2022-08-18T11:31:45;4.93;;;4.53;;
11121;SDS011;5615;49.304;10.576;2022-08-18T11:34:13;6.22;;;5.18;;
11121;SDS011;5615;49.304;10.576;2022-08-18T11:36:42;5.32;;;4.82;;
11121;SDS011;5615;49.304;10.576;2022-08-18T11:39:10;6.30;;;5.38;;
11121;SDS011;5615;49.304;10.576;2022-08-18T11:41:45;5.35;;;4.95;;
11121;SDS011;5615;49.304;10.576;2022-08-18T11:44:14;5.95;;;5.43;;
11121;SDS011;5615;49.304;10.576;2022-08-18T11:46:44;5.40;;;4.90;;
11121;SDS011;5615;49.304;10.576;2022-08-18T11:49:13;6.47;;;5.10;;
11121;SDS011;5615;49.304;10.576;2022-08-18T11:51:52;5.90;;;5.20;;
11121;SDS011;5615;49.304;10.576;2022-08-18T11:54:22;5.90;;;5.32;;
11121;SDS011;5615;49.304;10.576;2022-08-18T11:59:55;5.97;;;4.93;;
11121;SDS011;5615;49.304;10.576;2022-08-18T12:02:23;8.52;;;5.28;;
11121;SDS011;5615;49.304;10.576;2022-08-18T12:04:51;5.70;;;5.20;;
11121;SDS011;5615;49.304;10.576;2022-08-18T12:07:25;5.65;;;5.10;;
11121;SDS011;5615;49.304;10.576;2022-08-18T12:10:09;5.30;;;4.90;;
11121;SDS011;5615;49.304;10.576;2022-08-18T12:12:43;6.40;;;4.57;;
11121;SDS011;5615;49.304;10.576;2022-08-18T12:15:23;6.55;;;4.72;;
11121;SDS011;5615;49.304;10.576;2022-08-18T12:17:52;5.20;;;4.70;;
11121;SDS011;5615;49.304;10.576;2022-08-18T12:20:18;5.47;;;4.97;;
11121;SDS011;5615;49.304;10.576;2022-08-18T12:22:46;5.07;;;4.78;;
11121;SDS011;5615;49.304;10.576;2022-08-18T12:25:16;6.00;;;5.20;;
11121;SDS011;5615;49.304;10.576;2022-08-18T12:27:44;4.90;;;4.50;;
11121;SDS011;5615;49.304;10.576;2022-08-18T12:30:11;6.63;;;4.93;;
11121;SDS011;5615;49.304;10.576;2022-08-18T12:32:38;5.65;;;5.22;;
11121;SDS011;5615;49.304;10.576;2022-08-18T12:35:05;5.55;;;5.15;;
11121;SDS011;5615;49.304;10.576;2022-08-18T12:37:35;5.38;;;4.88;;
11121;SDS011;5615;49.304;10.576;2022-08-18T12:40:03;5.32;;;4.85;;
11121;SDS011;5615;49.304;10.576;2022-08-18T12:42:32;6.65;;;5.53;;
11121;SDS011;5615;49.304;10.576;2022-08-18T12:44:59;7.22;;;5.28;;
11121;SDS011;5615;49.304;10.576;2022-08-18T12:47:26;6.80;;;5.63;;
11121;SDS011;5615;49.304;10.576;2022-08-18T12:49:53;6.18;;;5.22;;
11121;SDS011;5615;49.304;10.576;2022-08-18T12:52:19;6.97;;;5.10;;
11121;SDS011;5615;49.304;10.576;2022-08-18T12:54:47;5.85;;;4.70;;
11121;SDS011;5615;49.304;10.576;2022-08-18T12:57:16;6.10;;;5.25;;
11121;SDS011;5615;49.304;10.576;2022-08-18T12:59:47;6.75;;;5.63;;
11121;SDS011;5615;49.304;10.576;2022-08-18T13:02:15;5.47;;;4.95;;
11121;SDS011;5615;49.304;10.576;2022-08-18T13:04:41;7.32;;;5.40;;
11121;SDS011;5615;49.304;10.576;2022-08-18T13:07:09;6.95;;;5.55;;
11121;SDS011;5615;49.304;10.576;2022-08-18T13:09:37;5.43;;;4.95;;
11121;SDS011;5615;49.304;10.576;2022-08-18T13:12:04;5.10;;;4.70;;
11121;SDS011;5615;49.304;10.576;2022-08-18T13:14:31;5.65;;;5.13;;
11121;SDS011;5615;49.304;10.576;2022-08-18T13:17:00;5.50;;;5.00;;
11121;SDS011;5615;49.304;10.576;2022-08-18T13:19:27;5.45;;;4.95;;
11121;SDS011;5615;49.304;10.576;2022-08-18T13:21:54;5.85;;;4.43;;
11121;SDS011;5615;49.304;10.576;2022-08-18T13:24:20;5.20;;;4.68;;
11121;SDS011;5615;49.304;10.576;2022-08-18T13:26:47;5.88;;;5.25;;
11121;SDS011;5615;49.304;10.576;2022-08-18T13:29:15;8.27;;;4.63;;
11121;SDS011;5615;49.304;10.576;2022-08-18T13:31:43;5.35;;;4.85;;
11121;SDS011;5615;49.304;10.576;2022-08-18T13:34:12;7.38;;;5.30;;
11121;SDS011;5615;49.304;10.576;2022-08-18T13:36:39;5.30;;;4.72;;
11121;SDS011;5615;49.304;10.576;2022-08-18T13:39:12;5.35;;;4.85;;
11121;SDS011;5615;49.304;10.576;2022-08-18T13:41:40;5.07;;;4.68;;
11121;SDS011;5615;49.304;10.576;2022-08-18T13:44:07;5.20;;;4.70;;
11121;SDS011;5615;49.304;10.576;2022-08-18T13:46:35;5.93;;;5.00;;
11121;SDS011;5615;49.304;10.576;2022-08-18T13:49:09;7.03;;;4.75;;
11121;SDS011;5615;49.304;10.576;2022-08-18T13:51:37;4.80;;;4.45;;
11121;SDS011;5615;49.304;10.576;2022-08-18T13:54:05;6.13;;;4.78;;
11121;SDS011;5615;49.304;10.576;2022-08-18T13:56:32;5.00;;;4.60;;
11121;SDS011;5615;49.304;10.576;2022-08-18T13:58:59;5.75;;;5.03;;
11121;SDS011;5615;49.304;10.576;2022-08-18T14:01:28;4.90;;;4.50;;
11121;SDS011;5615;49.304;10.576;2022-08-18T14:03:56;5.45;;;4.90;;
11121;SDS011;5615;49.304;10.576;2022-08-18T14:06:22;5.47;;;5.05;;
11121;SDS011;5615;49.304;10.576;2022-08-18T14:08:52;6.68;;;4.60;;
11121;SDS011;5615;49.304;10.576;2022-08-18T14:11:21;6.57;;;5.05;;
11121;SDS011;5615;49.304;10.576;2022-08-18T14:13:51;4.97;;;4.57;;
11121;SDS011;5615;49.304;10.576;2022-08-18T14:16:18;5.03;;;4.63;;
11121;SDS011;5615;49.304;10.576;2022-08-18T14:18:45;5.85;;;4.95;;
11121;SDS011;5615;49.304;10.576;2022-08-18T14:21:32;4.72;;;4.32;;
11121;SDS011;5615;49.304;10.576;2022-08-18T14:24:17;5.05;;;4.55;;
11121;SDS011;5615;49.304;10.576;2022-08-18T14:27:02;5.32;;;4.88;;
11121;SDS011;5615;49.304;10.576;2022-08-18T14:29:30;4.82;;;4.32;;
11121;SDS011;5615;49.304;10.576;2022-08-18T14:31:56;4.88;;;4.50;;
11121;SDS011;5615;49.304;10.576;2022-08-18T14:34:23;5.20;;;4.80;;
11121;SDS011;5615;49.304;10.576;2022-08-18T14:36:50;6.43;;;4.93;;
11121;SDS011;5615;49.304;10.576;2022-08-18T14:39:18;5.35;;;4.85;;
11121;SDS011;5615;49.304;10.576;2022-08-18T14:41:44;5.25;;;4.85;;
11121;SDS011;5615;49.304;10.576;2022-08-18T14:44:11;5.70;;;5.00;;
11121;SDS011;5615;49.304;10.576;2022-08-18T14:46:39;5.40;;;4.90;;
11121;SDS011;5615;49.304;10.576;2022-08-18T14:49:11;5.78;;;5.28;;
11121;SDS011;5615;49.304;10.576;2022-08-18T14:51:38;5.85;;;4.63;;
11121;SDS011;5615;49.304;10.576;2022-08-18T14:54:07;5.45;;;4.82;;
11121;SDS011;5615;49.304;10.576;2022-08-18T14:56:35;8.40;;;5.40;;
11121;SDS011;5615;49.304;10.576;2022-08-18T14:59:02;6.00;;;5.40;;
11121;SDS011;5615;49.304;10.576;2022-08-18T15:01:31;5.72;;;5.22;;
11121;SDS011;5615;49.304;10.576;2022-08-18T15:03:58;6.03;;;5.25;;
11121;SDS011;5615;49.304;10.576;2022-08-18T15:06:25;6.18;;;5.45;;
11121;SDS011;5615;49.304;10.576;2022-08-18T15:08:51;7.28;;;5.10;;
11121;SDS011;5615;49.304;10.576;2022-08-18T15:11:18;6.85;;;5.03;;
11121;SDS011;5615;49.304;10.576;2022-08-18T15:13:46;6.00;;;5.50;;
11121;SDS011;5615;49.304;10.576;2022-08-18T15:16:13;6.25;;;5.43;;
11121;SDS011;5615;49.304;10.576;2022-08-18T15:18:41;5.43;;;4.97;;
11121;SDS011;5615;49.304;10.576;2022-08-18T15:21:08;8.23;;;5.85;;
11121;SDS011;5615;49.304;10.576;2022-08-18T15:23:53;5.80;;;5.30;;
11121;SDS011;5615;49.304;10.576;2022-08-18T15:26:37;6.50;;;5.93;;
11121;SDS011;5615;49.304;10.576;2022-08-18T15:29:05;7.57;;;5.40;;